This is the latest recevied weather packets stored in our database for station/object SM6LNJ-13. If no packets are shown the sender has not sent any weather packets the latest 10 day(s).
| Time | Temp. | Humidity | Pressure | Rain* | Wind** | Luminosity | Snow |
|---|---|---|---|---|---|---|---|
| 1777458833 | 15° C | 60% | 1431.5 hPa | 0 mm | - | - | - |
| 1777458706 | 15° C | 61% | 1430.7 hPa | 0 mm | - | - | - |
| 1777458346 | 13.89° C | 62% | 1429 hPa | 0 mm | - | - | - |
| 1777458226 | 13.89° C | 62% | 1428.7 hPa | 0 mm | - | - | - |
| 1777458106 | 13.89° C | 62% | 1428.5 hPa | 0 mm | - | - | - |
| 1777457866 | 13.89° C | 62% | 1427.7 hPa | 0 mm | - | - | - |
| 1777457753 | 13.33° C | 61% | 1427.3 hPa | 0 mm | - | - | - |
| 1777457506 | 13.89° C | 60% | 1428.5 hPa | 0 mm | - | - | - |
| 1777457393 | 13.89° C | 60% | 1428.8 hPa | 0 mm | - | - | - |
| 1777443826 | 9.44° C | 85% | 1418.5 hPa | 0 mm | - | - | - |
| 1777438426 | 5.56° C | 91% | 1412.4 hPa | 0 mm | - | - | - |
| 1777428466 | 2.22° C | 90% | 1432.1 hPa | 0 mm | - | - | - |
| 1777411306 | 4.44° C | 78% | 1412.8 hPa | 0 mm | - | - | - |
| 1777394753 | 15.56° C | 51% | 1431.9 hPa | 0 mm | - | - | - |
| 1777394273 | 15.56° C | 51% | 1431.9 hPa | 0 mm | - | - | - |
| 1777394146 | 15.56° C | 52% | 1431.7 hPa | 0 mm | - | - | - |
| 1777393906 | 15° C | 52% | 1430.6 hPa | 0 mm | - | - | - |
| 1777393786 | 15° C | 52% | 1430.6 hPa | 0 mm | - | - | - |
| 1777393426 | 14.44° C | 53% | 1429.3 hPa | 0 mm | - | - | - |
| 1777392946 | 11.67° C | 57% | 1423.8 hPa | 0 mm | - | - | - |
| 1777392714 | 11.67° C | 56% | 1423.5 hPa | 0 mm | - | - | - |
| 1777392586 | 12.22° C | 55% | 1424.5 hPa | 0 mm | - | - | - |
| 1777392346 | 13.33° C | 55% | 1426.5 hPa | 0 mm | - | - | - |
| 1777392226 | 12.78° C | 55% | 1426.1 hPa | 0 mm | - | - | - |
| 1777392113 | 12.78° C | 54% | 1426.3 hPa | 0 mm | - | - | - |
* Rain latest hour (hover to see other rain measurements)
** Current wind speed in m/s (hover to see current wind gust speed)